Time;durP1;ratioP1;P1;durP2;ratioP2;P2;SDS_P1;SDS_P2;PMS_P1;PMS_P2;Temp;Humidity;BMP_temperature;BMP_pressure;BME280_temperature;BME280_humidity;BME280_pressure;Samples;Min_cycle;Max_cycle;Signal;HPM_P1;HPM_P2
2022/10/03 00:03:00;;;;;;;3.10;2.80;;;8.90;99.90;;;;;;5116018;28;20198;-68
2022/10/03 00:05:40;;;;;;;5.10;3.10;;;8.90;99.90;;;;;;5111001;27;20214;-66
2022/10/03 00:08:34;;;;;;;3.23;2.90;;;8.90;99.90;;;;;;5116042;28;20194;-66
2022/10/03 00:11:11;;;;;;;3.63;3.00;;;8.90;99.90;;;;;;5116610;27;20542;-67
2022/10/03 00:13:46;;;;;;;3.97;3.03;;;8.90;99.90;;;;;;5114908;27;20214;-68
2022/10/03 00:16:19;;;;;;;5.33;3.20;;;8.90;99.90;;;;;;5117085;27;20223;-68
2022/10/03 00:18:57;;;;;;;4.93;3.33;;;8.90;99.90;;;;;;5115000;28;20222;-66
2022/10/03 00:21:41;;;;;;;4.90;3.40;;;8.90;99.90;;;;;;5115540;28;20551;-68
2022/10/03 00:24:18;;;;;;;5.20;3.67;;;8.90;99.90;;;;;;5115477;28;20551;-66
2022/10/03 00:26:52;;;;;;;6.03;3.60;;;9.00;99.90;;;;;;5116693;27;20214;-66
2022/10/03 00:29:45;;;;;;;4.00;3.47;;;9.00;99.90;;;;;;5114558;28;20200;-66
2022/10/03 00:32:26;;;;;;;4.67;3.70;;;9.00;99.90;;;;;;5115403;28;20561;-66
2022/10/03 00:35:11;;;;;;;4.60;4.10;;;9.00;99.90;;;;;;5114146;28;20540;-66
2022/10/03 00:37:45;;;;;;;5.90;3.97;;;9.00;99.90;;;;;;5115275;28;20218;-66
2022/10/03 00:40:59;;;;;;;4.00;3.60;;;9.00;99.90;;;;;;5114269;28;20195;-66
2022/10/03 00:44:01;;;;;;;4.77;3.93;;;9.00;99.90;;;;;;5012268;28;20194;-67
2022/10/03 00:47:03;;;;;;;4.93;4.10;;;9.00;99.90;;;;;;4998191;28;20223;-65
2022/10/03 00:50:07;;;;;;;7.03;3.93;;;9.10;99.90;;;;;;5011575;28;20603;-67
2022/10/03 00:52:51;;;;;;;4.90;4.10;;;9.10;99.90;;;;;;5007489;28;20238;-66
2022/10/03 00:55:28;;;;;;;4.93;4.03;;;9.00;99.90;;;;;;5011548;28;20841;-66
2022/10/03 00:58:11;;;;;;;6.47;4.30;;;9.00;99.90;;;;;;5011878;28;20197;-65
2022/10/03 01:00:42;;;;;;;5.93;4.20;;;9.00;99.90;;;;;;5010396;28;20253;-67
2022/10/03 01:03:24;;;;;;;5.77;4.10;;;9.10;99.90;;;;;;5024294;28;20246;-65
2022/10/03 01:06:06;;;;;;;6.70;4.00;;;9.10;99.90;;;;;;5031411;28;20637;-66
2022/10/03 01:08:55;;;;;;;6.23;4.70;;;9.10;99.90;;;;;;5028508;28;20216;-66
2022/10/03 01:11:32;;;;;;;5.37;4.50;;;9.10;99.90;;;;;;5011793;28;20606;-65
2022/10/03 01:14:20;;;;;;;6.07;4.60;;;9.10;99.90;;;;;;5056079;28;20579;-65
2022/10/03 01:16:59;;;;;;;8.93;4.83;;;9.10;99.90;;;;;;5134169;27;20292;-65
2022/10/03 01:19:48;;;;;;;5.73;4.60;;;9.10;99.90;;;;;;5134710;27;20190;-65
2022/10/03 01:22:39;;;;;;;4.87;4.07;;;9.10;99.90;;;;;;5135050;27;20732;-66
2022/10/03 01:25:11;;;;;;;6.50;4.63;;;9.10;99.90;;;;;;5133558;27;20202;-65
2022/10/03 01:30:37;;;;;;;6.00;4.13;;;9.20;99.90;;;;;;5133486;27;20179;-65
2022/10/03 01:33:10;;;;;;;7.73;4.90;;;9.20;99.90;;;;;;5134514;27;20186;-65
2022/10/03 01:35:46;;;;;;;7.37;4.97;;;9.20;99.90;;;;;;5134412;27;20216;-66
2022/10/03 01:38:19;;;;;;;6.00;4.83;;;9.20;99.90;;;;;;5127610;27;20221;-65
2022/10/03 01:40:53;;;;;;;6.20;4.60;;;9.20;99.90;;;;;;5132542;27;20210;-65
2022/10/03 01:43:24;;;;;;;6.10;4.77;;;9.20;99.90;;;;;;5134082;27;20191;-65
2022/10/03 01:46:03;;;;;;;7.23;5.23;;;9.20;99.90;;;;;;5134483;27;20203;-64
2022/10/03 01:48:38;;;;;;;6.23;4.60;;;9.20;99.90;;;;;;5133860;27;20194;-65
2022/10/03 01:51:10;;;;;;;5.73;5.13;;;9.20;99.90;;;;;;5134409;27;20191;-64
2022/10/03 01:53:54;;;;;;;6.60;5.43;;;9.20;99.90;;;;;;5130729;27;20734;-65
2022/10/03 01:56:27;;;;;;;5.83;5.23;;;9.20;99.90;;;;;;5120866;27;20198;-65
2022/10/03 01:59:00;;;;;;;7.07;5.30;;;9.10;99.90;;;;;;5133616;27;20189;-65
2022/10/03 02:01:35;;;;;;;7.40;5.23;;;9.10;99.90;;;;;;5133729;27;20298;-65
2022/10/03 02:04:12;;;;;;;7.53;5.37;;;9.10;99.90;;;;;;5134192;27;20626;-65
2022/10/03 02:06:49;;;;;;;7.67;4.90;;;9.10;99.90;;;;;;5133688;27;20211;-64
2022/10/03 02:09:27;;;;;;;7.17;5.93;;;9.20;99.90;;;;;;5129146;27;20892;-65
2022/10/03 02:12:14;;;;;;;6.10;5.03;;;9.20;99.90;;;;;;5113095;28;20198;-66
2022/10/03 02:14:51;;;;;;;7.23;5.20;;;9.20;99.90;;;;;;5112817;28;20254;-65
2022/10/03 02:17:29;;;;;;;6.23;5.27;;;9.20;99.90;;;;;;5113175;28;20184;-65
2022/10/03 02:20:04;;;;;;;6.43;5.37;;;9.20;99.90;;;;;;5113097;28;20191;-66
2022/10/03 02:22:34;;;;;;;6.83;5.37;;;9.20;99.90;;;;;;5113003;28;20191;-66
2022/10/03 02:25:24;;;;;;;8.47;5.50;;;9.20;99.90;;;;;;5119735;27;20194;-65
2022/10/03 02:28:29;;;;;;;6.07;5.10;;;9.20;99.90;;;;;;5133342;27;20306;-65
2022/10/03 02:31:37;;;;;;;7.73;5.47;;;9.20;99.90;;;;;;5133744;27;20187;-65
2022/10/03 02:34:32;;;;;;;7.63;5.33;;;9.20;99.90;;;;;;5099078;27;20202;-67
2022/10/03 02:37:31;;;;;;;6.57;5.40;;;9.20;99.90;;;;;;5133358;27;20179;-66
2022/10/03 02:40:42;;;;;;;8.53;5.30;;;9.20;99.90;;;;;;5114832;27;20688;-65
2022/10/03 02:43:42;;;;;;;6.37;4.80;;;9.20;99.90;;;;;;5029707;28;20212;-65
2022/10/03 02:46:52;;;;;;;6.37;4.60;;;9.20;99.90;;;;;;5132000;27;20297;-65
2022/10/03 02:49:50;;;;;;;5.63;4.60;;;9.30;99.90;;;;;;5132140;27;20676;-66
2022/10/03 02:52:48;;;;;;;6.93;4.60;;;9.30;99.90;;;;;;5112730;28;20695;-65
2022/10/03 02:55:36;;;;;;;5.07;4.30;;;9.30;99.90;;;;;;5112534;28;20188;-66
2022/10/03 02:58:38;;;;;;;6.50;4.07;;;9.30;99.90;;;;;;5112490;28;20188;-65
2022/10/03 03:01:40;;;;;;;7.30;4.17;;;9.30;99.90;;;;;;5080120;28;20227;-66
2022/10/03 03:04:44;;;;;;;6.27;4.43;;;9.20;99.90;;;;;;5112532;28;20552;-64
2022/10/03 03:10:29;;;;;;;5.27;3.80;;;9.30;99.90;;;;;;5109685;27;20532;-66
2022/10/03 03:13:16;;;;;;;6.73;4.20;;;9.20;99.90;;;;;;5109737;28;20192;-65
2022/10/03 03:16:14;;;;;;;5.00;3.77;;;9.20;99.90;;;;;;5109780;28;20188;-66
2022/10/03 03:18:52;;;;;;;5.53;4.00;;;9.30;99.90;;;;;;5109780;28;20184;-66
2022/10/03 03:21:29;;;;;;;7.93;4.60;;;9.20;99.90;;;;;;5106812;28;20199;-66
2022/10/03 03:24:15;;;;;;;5.10;4.33;;;9.20;99.90;;;;;;5109153;28;20191;-65
2022/10/03 03:27:09;;;;;;;6.40;4.57;;;9.20;99.90;;;;;;5106834;28;20207;-65
2022/10/03 03:29:46;;;;;;;6.07;4.30;;;9.20;99.90;;;;;;5081386;28;20234;-64
2022/10/03 03:32:30;;;;;;;7.07;4.60;;;9.10;99.90;;;;;;5107580;28;20191;-65
2022/10/03 03:35:08;;;;;;;6.63;4.80;;;9.20;99.90;;;;;;5108421;28;20809;-66
2022/10/03 03:37:44;;;;;;;8.50;5.33;;;9.20;99.90;;;;;;5109311;28;20635;-66
2022/10/03 03:40:31;;;;;;;6.77;5.43;;;9.20;99.90;;;;;;5109071;28;20657;-66
2022/10/03 03:43:31;;;;;;;8.27;4.97;;;9.20;99.90;;;;;;5109142;28;20191;-66
2022/10/03 03:46:09;;;;;;;7.10;5.33;;;9.20;99.90;;;;;;5103482;28;20230;-65
2022/10/03 03:48:58;;;;;;;7.30;5.50;;;9.20;99.90;;;;;;5109096;28;20660;-65
2022/10/03 03:51:33;;;;;;;9.67;7.17;;;9.20;99.90;;;;;;5107679;28;20702;-65
2022/10/03 03:54:22;;;;;;;10.50;7.23;;;9.20;99.90;;;;;;5109026;28;20194;-66
2022/10/03 03:57:14;;;;;;;8.33;5.60;;;9.20;99.90;;;;;;5109001;28;20633;-66
2022/10/03 04:00:03;;;;;;;7.87;6.17;;;9.20;99.90;;;;;;5108867;28;20640;-65
2022/10/03 04:02:45;;;;;;;7.77;5.70;;;9.20;99.90;;;;;;5108313;28;20278;-67
2022/10/03 04:05:20;;;;;;;8.47;6.03;;;9.10;99.90;;;;;;5093715;28;20204;-67
2022/10/03 04:08:10;;;;;;;8.23;6.00;;;9.10;99.90;;;;;;5105968;28;20601;-67
2022/10/03 04:10:47;;;;;;;9.23;6.73;;;9.10;99.90;;;;;;5108164;28;20200;-66
2022/10/03 04:13:31;;;;;;;8.10;6.67;;;9.10;99.90;;;;;;5108658;28;20678;-67
2022/10/03 04:18:56;;;;;;;10.93;6.43;;;9.10;99.90;;;;;;5108874;28;20187;-67
2022/10/03 04:19:13;;;;;;;7.97;6.07;;;9.10;99.90;;;;;;5108025;28;20219;-66
2022/10/03 04:21:56;;;;;;;8.77;6.03;;;9.10;99.90;;;;;;5094239;28;20184;-66
2022/10/03 04:24:53;;;;;;;7.27;5.87;;;9.10;99.90;;;;;;5091590;28;20200;-67
2022/10/03 04:27:43;;;;;;;9.00;6.60;;;9.10;99.90;;;;;;5075587;28;20205;-67
2022/10/03 04:30:13;;;;;;;6.47;5.50;;;9.10;99.90;;;;;;5093395;28;20212;-66
2022/10/03 04:32:59;;;;;;;6.73;5.40;;;9.10;99.90;;;;;;5094752;28;20249;-66
2022/10/03 04:36:07;;;;;;;7.07;5.43;;;9.20;99.90;;;;;;5094751;28;20270;-66
2022/10/03 04:38:43;;;;;;;6.87;5.80;;;9.20;99.90;;;;;;5093289;28;20227;-67
2022/10/03 04:41:22;;;;;;;6.37;5.43;;;9.20;99.90;;;;;;5093656;28;20286;-66
2022/10/03 04:43:57;;;;;;;6.80;5.40;;;9.20;99.90;;;;;;5094526;28;20221;-65
2022/10/03 04:46:27;;;;;;;8.23;5.40;;;9.20;99.90;;;;;;5094230;28;20296;-65
2022/10/03 04:49:03;;;;;;;7.23;5.63;;;9.30;99.90;;;;;;5091966;28;20228;-63
2022/10/03 04:51:43;;;;;;;7.30;5.37;;;9.30;99.90;;;;;;5091409;28;20235;-64
2022/10/03 04:54:21;;;;;;;7.53;5.57;;;9.30;99.90;;;;;;5092400;28;20191;-64
2022/10/03 04:56:56;;;;;;;8.53;5.80;;;9.30;99.90;;;;;;5090002;28;20704;-64
2022/10/03 04:59:48;;;;;;;7.37;6.30;;;9.40;99.90;;;;;;5092855;28;20199;-64
2022/10/03 05:02:26;;;;;;;8.00;6.30;;;9.40;99.90;;;;;;5093679;28;20188;-67
2022/10/03 05:05:22;;;;;;;7.73;5.77;;;9.40;99.90;;;;;;5091429;28;20660;-63
2022/10/03 05:07:54;;;;;;;9.13;6.33;;;9.50;99.90;;;;;;5093474;28;20188;-65
2022/10/03 05:10:33;;;;;;;8.00;6.30;;;9.40;99.90;;;;;;5091856;28;20216;-65
2022/10/03 05:13:07;;;;;;;7.27;5.87;;;9.30;99.90;;;;;;5092644;28;20227;-65
2022/10/03 05:15:42;;;;;;;7.80;6.10;;;9.30;99.90;;;;;;5092646;28;20192;-66
2022/10/03 05:18:17;;;;;;;6.97;5.77;;;9.40;99.90;;;;;;5093594;28;20188;-65
2022/10/03 05:20:57;;;;;;;9.17;6.27;;;9.50;99.90;;;;;;5093426;28;20188;-64
2022/10/03 05:23:32;;;;;;;9.00;6.03;;;9.50;99.90;;;;;;5093532;28;20188;-64
2022/10/03 05:26:11;;;;;;;8.00;5.40;;;9.60;99.90;;;;;;5089488;28;20199;-64
2022/10/03 05:28:46;;;;;;;7.87;4.77;;;9.70;99.90;;;;;;5093431;28;20239;-66
2022/10/03 05:31:36;;;;;;;9.50;4.87;;;9.80;99.90;;;;;;5090847;28;20203;-65
2022/10/03 05:34:16;;;;;;;11.20;4.47;;;9.90;99.90;;;;;;5093563;28;20204;-66
2022/10/03 05:37:07;;;;;;;8.07;5.20;;;10.00;99.90;;;;;;5093698;28;20536;-65
2022/10/03 05:39:42;;;;;;;9.33;4.93;;;10.00;99.90;;;;;;5093161;28;20765;-64
2022/10/03 05:42:30;;;;;;;8.63;4.17;;;10.20;99.90;;;;;;5092151;28;20200;-64
2022/10/03 05:45:03;;;;;;;12.67;7.30;;;10.30;99.90;;;;;;5092938;28;20230;-64
2022/10/03 05:47:47;;;;;;;8.17;4.20;;;10.40;99.90;;;;;;5093056;28;20310;-65
2022/10/03 05:50:56;;;;;;;10.10;4.30;;;10.40;99.90;;;;;;5093206;28;20268;-65
2022/10/03 05:53:52;;;;;;;5.67;3.57;;;10.60;99.90;;;;;;5092930;28;20211;-65
2022/10/03 05:56:31;;;;;;;9.50;3.63;;;10.70;99.90;;;;;;5092185;28;20287;-68
2022/10/03 05:59:29;;;;;;;8.97;3.00;;;10.70;99.90;;;;;;5090416;28;20206;-66
2022/10/03 06:02:23;;;;;;;6.83;3.40;;;10.80;99.90;;;;;;5091805;28;20232;-65
2022/10/03 06:05:12;;;;;;;7.17;3.57;;;10.90;99.90;;;;;;5091303;28;20189;-65
2022/10/03 06:07:51;;;;;;;7.87;3.70;;;11.00;99.90;;;;;;5091708;28;20553;-66
2022/10/03 06:10:39;;;;;;;7.60;3.10;;;11.10;99.90;;;;;;5087256;28;20567;-66
2022/10/03 06:13:13;;;;;;;5.80;2.70;;;11.10;99.90;;;;;;5089407;28;20196;-64
2022/10/03 06:15:53;;;;;;;4.73;2.70;;;11.20;99.90;;;;;;5091653;28;20192;-65
2022/10/03 06:18:51;;;;;;;6.63;3.00;;;11.30;99.90;;;;;;5092398;28;20644;-67
2022/10/03 06:21:33;;;;;;;6.40;2.93;;;11.30;99.90;;;;;;5092664;28;20236;-66
2022/10/03 06:24:50;;;;;;;5.90;2.83;;;11.40;99.90;;;;;;5092568;28;20518;-65
2022/10/03 06:27:49;;;;;;;7.77;2.90;;;11.50;99.90;;;;;;5088495;28;20208;-66
2022/10/03 06:30:22;;;;;;;6.17;2.60;;;11.50;99.90;;;;;;5092064;28;20222;-66
2022/10/03 06:33:49;;;;;;;6.50;2.57;;;11.60;99.90;;;;;;5092306;28;20208;-66
2022/10/03 06:36:49;;;;;;;6.27;2.20;;;11.60;99.90;;;;;;5089690;28;20213;-65
2022/10/03 06:39:55;;;;;;;5.43;2.10;;;11.60;99.90;;;;;;5092307;28;20614;-65
2022/10/03 06:42:46;;;;;;;6.17;2.20;;;11.60;99.90;;;;;;5092268;28;20188;-66
2022/10/03 06:46:01;;;;;;;5.20;2.27;;;11.70;99.90;;;;;;5092162;28;20551;-65
2022/10/03 06:49:04;;;;;;;7.07;3.07;;;11.70;99.90;;;;;;5090960;28;20196;-66
2022/10/03 06:51:58;;;;;;;5.53;2.43;;;11.70;99.90;;;;;;5071718;28;20195;-65
2022/10/03 06:55:03;;;;;;;6.37;2.50;;;11.80;99.90;;;;;;5071947;28;20566;-65
2022/10/03 06:58:05;;;;;;;6.87;2.40;;;11.80;99.90;;;;;;5057828;28;20260;-67
2022/10/03 07:00:51;;;;;;;6.53;2.40;;;11.90;99.90;;;;;;5055248;28;20209;-68
2022/10/03 07:03:37;;;;;;;6.00;2.27;;;11.90;99.90;;;;;;5087832;28;20208;-65
2022/10/03 07:06:32;;;;;;;5.67;2.73;;;11.90;99.90;;;;;;5092252;28;20187;-67
2022/10/03 07:09:52;;;;;;;5.80;2.47;;;12.00;99.90;;;;;;5091291;28;20231;-65
2022/10/03 07:12:47;;;;;;;5.00;2.10;;;12.10;99.90;;;;;;5091967;28;20192;-66
2022/10/03 07:15:44;;;;;;;8.63;2.60;;;12.10;99.90;;;;;;5089217;28;20202;-67
2022/10/03 07:18:53;;;;;;;7.63;2.40;;;12.10;99.90;;;;;;5091628;28;20192;-67
2022/10/03 07:22:03;;;;;;;6.60;2.37;;;12.10;99.90;;;;;;5090986;28;20636;-68
2022/10/03 07:24:59;;;;;;;6.13;2.80;;;12.10;99.90;;;;;;5091647;28;20689;-65
2022/10/03 07:27:44;;;;;;;8.77;2.73;;;12.00;99.90;;;;;;5089099;28;20465;-65
2022/10/03 07:30:16;;;;;;;6.07;2.60;;;12.10;99.90;;;;;;5090936;28;20668;-65
2022/10/03 07:33:18;;;;;;;5.67;2.73;;;12.00;99.90;;;;;;5091452;28;20192;-66
2022/10/03 07:39:29;;;;;;;9.70;3.27;;;12.10;99.90;;;;;;5089847;28;20520;-65
2022/10/03 07:42:20;;;;;;;6.57;3.30;;;12.10;99.90;;;;;;4989164;28;20208;-69
2022/10/03 07:45:23;;;;;;;7.50;2.73;;;12.20;99.90;;;;;;4987664;28;20215;-66
2022/10/03 07:48:31;;;;;;;6.77;2.90;;;12.20;99.90;;;;;;4989223;28;20598;-64
2022/10/03 07:51:13;;;;;;;6.93;2.70;;;12.20;99.90;;;;;;4989557;28;20216;-65
2022/10/03 07:54:23;;;;;;;6.07;2.97;;;12.30;99.90;;;;;;4988791;28;20218;-66
2022/10/03 07:57:31;;;;;;;8.40;2.80;;;12.30;99.90;;;;;;4992636;28;20192;-66
2022/10/03 08:00:22;;;;;;;7.47;2.63;;;12.30;99.90;;;;;;4935303;29;20213;-67
2022/10/03 08:03:40;;;;;;;6.80;2.50;;;12.30;99.90;;;;;;4932088;29;20218;-66
2022/10/03 08:06:25;;;;;;;8.70;2.63;;;12.40;99.90;;;;;;4935028;29;20221;-66
2022/10/03 08:09:18;;;;;;;8.77;2.73;;;12.50;99.90;;;;;;4937841;29;20239;-66
2022/10/03 08:12:14;;;;;;;7.50;2.40;;;12.50;99.90;;;;;;4949490;28;20216;-66
2022/10/03 08:14:52;;;;;;;7.03;2.60;;;12.50;99.90;;;;;;5039628;28;20689;-64
2022/10/03 08:17:46;;;;;;;3.83;2.73;;;12.50;99.90;;;;;;5051746;28;20204;-66
2022/10/03 08:20:36;;;;;;;4.50;2.70;;;12.70;99.90;;;;;;5051727;28;20225;-65
2022/10/03 08:23:24;;;;;;;5.80;2.73;;;12.70;99.90;;;;;;5051984;28;20219;-64
2022/10/03 08:26:07;;;;;;;6.30;2.80;;;12.70;99.90;;;;;;5051034;28;20655;-65
2022/10/03 08:28:59;;;;;;;10.30;2.80;;;12.70;99.90;;;;;;5051663;28;20197;-66
2022/10/03 08:32:10;;;;;;;6.43;3.17;;;12.70;99.90;;;;;;5084498;28;20722;-66
2022/10/03 08:35:04;;;;;;;8.70;3.10;;;12.80;99.90;;;;;;5037019;28;20255;-66
2022/10/03 08:38:17;;;;;;;5.10;2.63;;;12.80;99.90;;;;;;5094496;28;20200;-64
2022/10/03 08:41:18;;;;;;;5.10;2.90;;;12.90;99.90;;;;;;5092511;28;20203;-66
2022/10/03 08:44:11;;;;;;;5.23;2.70;;;13.00;99.90;;;;;;5094241;28;20228;-65
2022/10/03 08:47:14;;;;;;;4.70;2.67;;;13.00;99.90;;;;;;5094124;28;20242;-65
2022/10/03 08:50:16;;;;;;;5.67;2.50;;;13.00;99.90;;;;;;5088688;28;20243;-66
2022/10/03 08:53:02;;;;;;;6.13;2.30;;;13.00;99.90;;;;;;5070616;28;20348;-66
2022/10/03 08:55:47;;;;;;;3.50;2.33;;;13.00;99.90;;;;;;5093189;28;20204;-65
2022/10/03 08:58:54;;;;;;;6.87;2.67;;;13.00;99.90;;;;;;5094292;28;20193;-64
2022/10/03 09:01:44;;;;;;;5.43;2.90;;;13.00;99.90;;;;;;5092100;28;20548;-66
2022/10/03 09:05:12;;;;;;;5.37;2.37;;;13.00;99.90;;;;;;5079272;28;20653;-65
2022/10/03 09:08:13;;;;;;;5.40;2.80;;;13.00;99.90;;;;;;5030817;28;20696;-67
2022/10/03 09:11:12;;;;;;;4.43;2.30;;;13.00;99.90;;;;;;5001618;28;20670;-66
2022/10/03 09:14:38;;;;;;;4.07;2.40;;;13.10;99.90;;;;;;5066361;28;20566;-66
2022/10/03 09:17:28;;;;;;;4.87;2.20;;;13.20;99.90;;;;;;5087438;28;20278;-66
2022/10/03 09:20:17;;;;;;;7.87;2.50;;;13.20;99.90;;;;;;5062426;28;20302;-66
2022/10/03 09:23:03;;;;;;;5.23;2.90;;;13.30;99.90;;;;;;5093850;28;20547;-67
2022/10/03 09:25:50;;;;;;;5.63;2.40;;;13.30;99.90;;;;;;5093589;28;20280;-65
2022/10/03 09:28:44;;;;;;;7.50;2.40;;;13.30;99.90;;;;;;5093959;28;20192;-66
2022/10/03 09:31:32;;;;;;;4.33;2.10;;;13.40;99.90;;;;;;5091292;28;20246;-66
2022/10/03 09:34:17;;;;;;;6.20;2.23;;;13.50;99.90;;;;;;5093294;28;20192;-66
2022/10/03 09:37:23;;;;;;;6.80;2.60;;;13.50;99.90;;;;;;5092341;28;20189;-66
2022/10/03 09:40:34;;;;;;;8.80;2.50;;;13.60;99.90;;;;;;5074382;28;20187;-66
2022/10/03 09:43:40;;;;;;;5.70;2.20;;;13.60;99.90;;;;;;5081124;28;20204;-66
2022/10/03 09:47:21;;;;;;;5.03;2.27;;;13.60;99.90;;;;;;5077075;28;20730;-66
2022/10/03 09:50:12;;;;;;;6.43;2.80;;;13.70;99.90;;;;;;5062420;28;20216;-66
2022/10/03 09:53:01;;;;;;;5.13;2.10;;;13.70;99.90;;;;;;5082059;28;20221;-64
2022/10/03 09:55:50;;;;;;;5.50;2.00;;;13.80;99.90;;;;;;5072837;28;20197;-66
2022/10/03 09:58:45;;;;;;;9.10;2.73;;;13.80;99.90;;;;;;5083011;28;20246;-66
2022/10/03 10:01:21;;;;;;;8.77;2.30;;;13.90;99.90;;;;;;5072726;28;20195;-66
2022/10/03 10:04:34;;;;;;;9.93;2.23;;;14.00;99.90;;;;;;5072454;28;20279;-66
2022/10/03 10:07:35;;;;;;;5.50;2.10;;;14.10;99.90;;;;;;5036204;28;20574;-66
2022/10/03 10:10:48;;;;;;;5.93;2.10;;;14.10;99.90;;;;;;5087988;28;20671;-66
2022/10/03 10:13:28;;;;;;;3.27;2.10;;;14.20;99.90;;;;;;5091327;28;20249;-66
2022/10/03 10:16:17;;;;;;;5.07;1.87;;;14.30;99.90;;;;;;5089723;28;20214;-65
2022/10/03 10:19:26;;;;;;;12.43;2.27;;;14.40;99.90;;;;;;5092187;28;20219;-65
2022/10/03 10:22:15;;;;;;;3.30;1.90;;;14.30;99.90;;;;;;5092125;28;20191;-66
2022/10/03 10:25:21;;;;;;;6.20;1.90;;;14.30;99.90;;;;;;5092224;28;20280;-65
2022/10/03 10:28:27;;;;;;;4.20;2.10;;;14.30;99.90;;;;;;5092657;28;20196;-66
2022/10/03 10:31:38;;;;;;;2.77;1.80;;;14.30;99.90;;;;;;5080556;28;20234;-65
2022/10/03 10:34:38;;;;;;;6.70;2.50;;;14.40;99.90;;;;;;5039162;28;20212;-67
2022/10/03 10:37:42;;;;;;;5.30;2.47;;;14.30;99.90;;;;;;5070054;28;20204;-67
2022/10/03 10:40:41;;;;;;;4.70;2.10;;;14.20;99.90;;;;;;5071633;28;20185;-65
2022/10/03 10:43:46;;;;;;;2.87;1.87;;;14.20;99.90;;;;;;5072014;28;20196;-65
2022/10/03 10:46:41;;;;;;;3.77;2.03;;;14.10;99.90;;;;;;5076611;28;20209;-66
2022/10/03 10:49:44;;;;;;;6.00;2.03;;;14.10;99.90;;;;;;5080155;28;20605;-64
2022/10/03 10:52:47;;;;;;;5.37;2.00;;;14.10;99.90;;;;;;5089349;28;20619;-66
2022/10/03 10:55:49;;;;;;;4.13;1.93;;;14.10;99.90;;;;;;5091520;28;20188;-66
2022/10/03 10:58:53;;;;;;;4.03;1.93;;;14.10;99.90;;;;;;5092017;28;20561;-65
2022/10/03 11:02:08;;;;;;;3.20;1.93;;;14.10;99.90;;;;;;5089497;28;20561;-65
2022/10/03 11:05:14;;;;;;;3.70;2.00;;;14.20;99.90;;;;;;5021807;28;20198;-66
2022/10/03 11:08:16;;;;;;;4.77;2.20;;;14.10;99.90;;;;;;5004544;28;20202;-67
2022/10/03 11:11:00;;;;;;;2.57;1.97;;;14.10;99.90;;;;;;5026413;28;20236;-65
2022/10/03 11:14:08;;;;;;;3.37;2.30;;;14.20;99.90;;;;;;5027987;28;20761;-65
2022/10/03 11:17:07;;;;;;;5.57;2.00;;;14.20;99.90;;;;;;5011413;28;20273;-66
2022/10/03 11:20:25;;;;;;;5.13;2.00;;;14.20;99.90;;;;;;5028532;28;20567;-67
2022/10/03 11:23:28;;;;;;;3.87;2.10;;;14.20;99.90;;;;;;5009521;28;20214;-65
2022/10/03 11:26:36;;;;;;;5.87;2.33;;;14.20;99.90;;;;;;5024479;28;20333;-64
2022/10/03 11:29:38;;;;;;;4.37;2.10;;;14.20;99.90;;;;;;5027026;28;20202;-66
2022/10/03 11:32:37;;;;;;;5.37;1.80;;;14.20;99.90;;;;;;5027320;28;20720;-66
2022/10/03 11:35:44;;;;;;;4.03;2.17;;;14.20;99.90;;;;;;5053735;28;20222;-65
2022/10/03 11:38:19;;;;;;;6.87;2.40;;;14.20;99.90;;;;;;5095498;28;20195;-66
2022/10/03 11:40:58;;;;;;;5.73;2.00;;;14.20;99.90;;;;;;5095583;28;20200;-65
2022/10/03 11:44:06;;;;;;;5.40;2.00;;;14.30;99.90;;;;;;5088349;28;20192;-65
2022/10/03 11:46:57;;;;;;;4.30;2.37;;;14.20;99.90;;;;;;5078813;28;20284;-66
2022/10/03 11:49:59;;;;;;;4.00;1.90;;;14.20;99.90;;;;;;5077958;28;20213;-66
2022/10/03 11:52:35;;;;;;;7.03;1.90;;;14.10;99.90;;;;;;5084517;28;20235;-65
2022/10/03 11:55:20;;;;;;;3.23;2.00;;;14.00;99.90;;;;;;5074988;28;20195;-64
2022/10/03 11:57:56;;;;;;;6.30;1.97;;;13.90;99.90;;;;;;5078257;28;20196;-65
2022/10/03 12:00:25;;;;;;;7.90;2.70;;;13.90;99.90;;;;;;5088730;28;20664;-65
2022/10/03 12:03:12;;;;;;;5.10;2.27;;;13.90;99.90;;;;;;5094966;28;20196;-67
2022/10/03 12:05:51;;;;;;;5.77;2.27;;;13.90;99.90;;;;;;5074760;28;20190;-66
2022/10/03 12:11:18;;;;;;;4.23;2.30;;;14.00;99.90;;;;;;5085886;28;20692;-66
2022/10/03 12:13:55;;;;;;;6.43;2.93;;;14.00;99.90;;;;;;5079373;28;20289;-64
2022/10/03 12:16:27;;;;;;;4.70;2.10;;;14.10;99.90;;;;;;5094762;28;20204;-65
2022/10/03 12:19:02;;;;;;;6.90;2.20;;;14.00;99.90;;;;;;5095204;28;20325;-66
2022/10/03 12:21:41;;;;;;;5.27;2.23;;;14.10;99.90;;;;;;5095001;28;20541;-66
2022/10/03 12:24:24;;;;;;;5.97;2.20;;;14.10;99.90;;;;;;5094826;28;20596;-65
2022/10/03 12:26:58;;;;;;;3.80;1.90;;;14.10;99.90;;;;;;5094784;28;20199;-65
2022/10/03 12:29:28;;;;;;;6.33;2.47;;;14.10;99.90;;;;;;5094091;28;20195;-66
2022/10/03 12:32:18;;;;;;;8.17;2.93;;;14.10;99.90;;;;;;5085960;28;20269;-66
2022/10/03 12:34:55;;;;;;;7.27;2.17;;;14.10;99.90;;;;;;5094587;28;20670;-66
2022/10/03 12:37:43;;;;;;;4.73;2.20;;;14.00;99.90;;;;;;5094397;28;20192;-64
2022/10/03 12:40:19;;;;;;;5.83;2.60;;;13.90;99.90;;;;;;5094373;28;20211;-66
2022/10/03 12:42:55;;;;;;;8.63;2.27;;;13.80;99.90;;;;;;5094246;28;20696;-65
2022/10/03 12:45:31;;;;;;;4.43;2.20;;;13.80;99.90;;;;;;5094188;28;20202;-66
2022/10/03 12:48:05;;;;;;;4.03;2.10;;;13.80;99.90;;;;;;5094491;28;20249;-66
2022/10/03 12:50:43;;;;;;;3.17;2.00;;;13.80;99.90;;;;;;5078580;28;20211;-65
2022/10/03 12:53:24;;;;;;;4.50;2.20;;;13.80;99.90;;;;;;5074141;28;20193;-66
2022/10/03 12:56:02;;;;;;;3.33;2.20;;;13.80;99.90;;;;;;5077818;28;20438;-66
2022/10/03 12:58:39;;;;;;;3.33;2.13;;;13.70;99.90;;;;;;5086776;28;20196;-65
2022/10/03 13:01:15;;;;;;;5.43;2.20;;;13.80;99.90;;;;;;5093103;28;20184;-66
2022/10/03 13:03:51;;;;;;;5.07;2.33;;;13.80;99.90;;;;;;5073670;28;20188;-65
2022/10/03 13:06:39;;;;;;;7.67;2.50;;;13.90;99.90;;;;;;5081966;28;20210;-65
2022/10/03 13:09:22;;;;;;;6.07;2.20;;;13.90;99.90;;;;;;5093407;28;20224;-66
2022/10/03 13:11:58;;;;;;;3.57;2.20;;;14.00;99.90;;;;;;5093813;28;20257;-66
2022/10/03 13:15:02;;;;;;;5.40;2.37;;;13.90;99.90;;;;;;5089255;28;20192;-66
2022/10/03 13:17:37;;;;;;;5.10;2.53;;;14.00;99.90;;;;;;5093839;28;20214;-67
2022/10/03 13:20:10;;;;;;;8.03;3.50;;;14.00;99.90;;;;;;5093825;28;20187;-66
2022/10/03 13:22:44;;;;;;;6.20;2.40;;;13.70;99.90;;;;;;5093779;28;20189;-66
2022/10/03 13:25:20;;;;;;;5.40;1.90;;;13.60;99.90;;;;;;5093693;28;20198;-65
2022/10/03 13:27:53;;;;;;;3.67;1.80;;;13.40;99.90;;;;;;5093312;28;20279;-65
2022/10/03 13:30:24;;;;;;;5.30;2.60;;;13.30;99.90;;;;;;5093928;28;20199;-66
2022/10/03 13:32:56;;;;;;;4.70;1.90;;;13.20;99.90;;;;;;5093435;28;20261;-66
2022/10/03 13:38:38;;;;;;;4.53;2.20;;;13.10;99.90;;;;;;5088448;28;20199;-66
2022/10/03 13:41:15;;;;;;;6.50;2.20;;;13.00;99.90;;;;;;5092843;28;20207;-65
2022/10/03 13:43:48;;;;;;;2.70;2.07;;;13.00;99.90;;;;;;5093550;28;20191;-67
2022/10/03 13:46:19;;;;;;;5.00;2.37;;;13.00;99.90;;;;;;5092805;28;20196;-65
2022/10/03 13:48:55;;;;;;;5.80;2.30;;;12.90;99.90;;;;;;5072897;28;20343;-66
2022/10/03 13:51:31;;;;;;;4.40;2.17;;;13.00;99.90;;;;;;5072953;28;20219;-65
2022/10/03 13:54:03;;;;;;;4.03;2.30;;;13.00;99.90;;;;;;5071689;28;20286;-66
2022/10/03 13:56:54;;;;;;;6.33;2.17;;;13.00;99.90;;;;;;5082626;28;20192;-66
2022/10/03 13:59:46;;;;;;;4.97;2.63;;;13.00;99.90;;;;;;5092379;28;20725;-65
2022/10/03 14:02:39;;;;;;;2.70;2.13;;;13.10;99.90;;;;;;5093012;28;20579;-65
2022/10/03 14:05:36;;;;;;;4.30;2.40;;;13.10;99.90;;;;;;5087732;28;20253;-65
2022/10/03 14:08:12;;;;;;;4.67;2.20;;;13.10;99.90;;;;;;5073376;28;20235;-65
2022/10/03 14:11:08;;;;;;;3.17;2.00;;;13.10;99.90;;;;;;5079600;28;20622;-65
2022/10/03 14:13:51;;;;;;;4.57;2.03;;;13.10;99.90;;;;;;5092660;28;20188;-65
2022/10/03 14:16:26;;;;;;;3.17;1.97;;;13.20;99.90;;;;;;5080656;28;20211;-69
2022/10/03 14:19:00;;;;;;;3.30;2.13;;;13.20;99.90;;;;;;5087624;28;20196;-66
2022/10/03 14:21:45;;;;;;;5.37;2.30;;;13.20;99.90;;;;;;5092720;28;20191;-67
2022/10/03 14:24:26;;;;;;;6.57;2.20;;;13.20;99.90;;;;;;5079403;28;20193;-67
2022/10/03 14:26:59;;;;;;;4.67;2.00;;;13.30;99.90;;;;;;5072021;28;20193;-66
2022/10/03 14:29:31;;;;;;;3.97;2.20;;;13.30;99.90;;;;;;5072814;28;20189;-66
2022/10/03 14:32:06;;;;;;;5.67;2.10;;;13.40;99.90;;;;;;5090204;28;20212;-68
2022/10/03 14:34:47;;;;;;;2.87;2.00;;;13.40;99.90;;;;;;5087058;28;20250;-66
2022/10/03 14:37:24;;;;;;;3.63;2.00;;;13.40;99.90;;;;;;5087745;28;20189;-66
2022/10/03 14:40:04;;;;;;;4.03;2.10;;;13.50;99.90;;;;;;5071958;28;20470;-66
2022/10/03 14:42:55;;;;;;;5.47;2.23;;;13.50;99.90;;;;;;5072311;28;20279;-66
2022/10/03 14:45:28;;;;;;;3.70;2.00;;;13.50;99.90;;;;;;5061508;28;20283;-66
2022/10/03 14:48:04;;;;;;;2.60;1.73;;;13.50;99.90;;;;;;5080651;28;20227;-65
2022/10/03 14:50:32;;;;;;;2.00;1.70;;;13.60;99.90;;;;;;5090701;28;20279;-66
2022/10/03 14:53:03;;;;;;;4.13;2.17;;;13.60;99.90;;;;;;5072066;28;20239;-66
2022/10/03 14:55:34;;;;;;;5.10;1.80;;;13.60;99.90;;;;;;5074633;28;20200;-65